Data for 01/25/2006

Time Sea-Level Adjusted Pressure Absolute Pressure Temperature Relative Humidity Dew Point   
(mb) (inHg) (mb) (inHg) (C) (F) (%) (C) (F)
00:05 1023 30.21 852 25.16 1 33.8 46 -9.2 15.4
00:10 1023 30.21 852 25.16 1 33.9 47 -9.1 15.6
00:15 1023 30.21 852 25.16 0.9 33.7 47 -9.1 15.5
00:20 1023 30.21 852 25.16 0.7 33.3 48 -9.1 15.7
00:25 1023 30.21 852 25.16 0.5 32.8 47 -9.5 15
00:30 1023 30.21 852 25.16 0.6 33.1 48 -9.2 15.4
00:35 1023 30.21 852 25.16 0.4 32.7 46 -9.9 14.2
00:40 1023 30.21 852 25.16 -0.3 31.5 47 -10.2 13.6
00:45 1023 30.21 852 25.16 -0.8 30.6 49 -10.1 13.8
00:50 1023 30.21 852 25.16 -1.6 29.2 52 -10.1 13.8
00:55 1023 30.21 852 25.16 -1.1 30.1 50 -10.2 13.7
01:00 1023 30.21 852 25.16 -0.2 31.6 47 -10.1 13.8
01:05 1023 30.21 852 25.16 0.4 32.7 45 -10.2 13.6
01:10 1023 30.21 852 25.16 0.4 32.8 46 -9.8 14.3
01:15 1023 30.21 852 25.16 0.6 33 45 -10.1 13.7
01:20 1023 30.21 852 25.16 0.9 33.7 45 -9.7 14.5
01:25 1023 30.21 852 25.16 0.8 33.4 46 -9.5 14.8
01:30 1022 30.18 852 25.16 0.6 33 47 -9.5 14.9
01:35 1022 30.18 852 25.16 0.1 32.1 48 -9.7 14.6
01:40 1022 30.18 852 25.16 -0.4 31.2 50 -9.6 14.7
01:45 1022 30.18 852 25.16 -0.6 30.9 51 -9.5 14.9
01:50 1022 30.18 852 25.16 -0.6 30.9 51 -9.6 14.8
01:55 1022 30.18 851 25.13 -0.8 30.6 51 -9.6 14.7
02:00 1022 30.18 851 25.13 -1 30.2 51 -9.8 14.4
02:05 1022 30.18 851 25.13 -1.3 29.7 51 -10.2 13.7
02:10 1022 30.18 851 25.13 -1.3 29.6 52 -9.9 14.1
02:15 1022 30.18 851 25.13 -1.2 29.8 50 -10.4 13.3
02:20 1022 30.18 851 25.13 -0.3 31.5 48 -9.9 14.2
02:25 1022 30.18 851 25.13 -0.6 31 49 -10.1 13.8
02:30 1022 30.18 851 25.13 0.2 32.4 45 -10.3 13.5
02:35 1022 30.18 851 25.13 0.2 32.4 47 -9.8 14.3
02:40 1022 30.18 851 25.13 -0.4 31.3 49 -9.9 14.1
02:45 1022 30.18 851 25.13 -0.5 31.2 48 -10.1 13.9
02:50 1022 30.18 851 25.13 -0.4 31.3 47 -10.4 13.3
02:55 1022 30.18 851 25.13 0.1 32.1 46 -10.2 13.6
03:00 1022 30.18 851 25.13 0.4 32.7 45 -10.1 13.7
03:05 1022 30.18 851 25.13 0.4 32.7 45 -10.2 13.7
03:10 1021 30.15 851 25.13 0.3 32.6 45 -10.1 13.7
03:15 1021 30.15 851 25.13 -0.1 31.9 48 -9.9 14.2
03:20 1021 30.15 851 25.13 -0.8 30.6 49 -10.2 13.7
03:25 1021 30.15 851 25.13 -0.1 31.8 46 -10.5 13.1
03:30 1021 30.15 850 25.1 0.3 32.5 45 -10.3 13.5
03:35 1021 30.15 850 25.1 0.5 33 44 -10.3 13.5
03:40 1021 30.15 850 25.1 -0.1 31.8 48 -10 14
03:45 1021 30.15 850 25.1 -1 30.3 49 -10.3 13.4
03:50 1021 30.15 850 25.1 -1.6 29.1 52 -10.2 13.7
03:55 1021 30.15 850 25.1 -2.7 27.1 55 -10.5 13.2
04:00 1021 30.15 850 25.1 -3 26.5 58 -10.3 13.5
04:05 1021 30.15 850 25.1 -3 26.6 57 -10.3 13.5
04:10 1021 30.15 850 25.1 -2.1 28.3 52 -10.7 12.8
04:15 1021 30.15 850 25.1 -1.8 28.8 54 -10 14
04:20 1021 30.15 850 25.1 -2.5 27.4 57 -10 14.1
04:25 1021 30.15 850 25.1 -2.2 28.1 53 -10.6 13
04:30 1021 30.15 850 25.1 -1.1 30 49 -10.5 13
04:35 1021 30.15 850 25.1 -1 30.2 49 -10.3 13.4
04:40 1021 30.15 850 25.1 -1 30.1 49 -10.5 13.1
04:45 1021 30.15 850 25.1 -1 30.2 49 -10.4 13.4
04:50 1021 30.15 850 25.1 -1.1 30.1 50 -10.3 13.5
04:55 1020 30.12 850 25.1 -1.1 30 50 -10.4 13.3
05:00 1020 30.12 850 25.1 -1.8 28.8 52 -10.4 13.3
05:05 1020 30.12 850 25.1 -1.5 29.4 50 -10.6 13
05:10 1020 30.12 850 25.1 -1.5 29.2 52 -10.2 13.6
05:15 1020 30.12 850 25.1 -1.7 28.9 52 -10.3 13.4
05:20 1020 30.12 849 25.07 -1.6 29.1 55 -9.5 14.9
05:25 1020 30.12 849 25.07 -0.7 30.7 49 -10.1 13.9
05:30 1020 30.12 849 25.07 -2 28.4 55 -9.9 14.2
05:35 1020 30.12 849 25.07 -3.1 26.5 57 -10.3 13.4
05:40 1020 30.12 849 25.07 -2.5 27.4 56 -10.1 13.9
05:45 1020 30.12 849 25.07 -2.2 28 54 -10.4 13.3
05:50 1020 30.12 849 25.07 -2.4 27.8 54 -10.5 13
05:55 1020 30.12 849 25.07 -2.8 27 56 -10.5 13.1
06:00 1020 30.12 849 25.07 -2.9 26.7 56 -10.6 13
06:05 1020 30.12 849 25.07 -2.8 26.9 56 -10.4 13.3
06:10 1020 30.12 849 25.07 -3 26.5 55 -10.8 12.6
06:15 1020 30.12 849 25.07 -3.1 26.3 56 -10.8 12.6
06:20 1020 30.12 849 25.07 -3.1 26.4 57 -10.4 13.2
06:25 1020 30.12 849 25.07 -2.3 27.9 53 -10.5 13.1
06:30 1020 30.12 849 25.07 -2.2 28 54 -10.3 13.5
06:35 1020 30.12 849 25.07 -2.4 27.6 54 -10.5 13.2
06:40 1020 30.12 849 25.07 -2.6 27.4 54 -10.5 13
06:45 1020 30.12 849 25.07 -3.5 25.8 58 -10.6 12.8
06:50 1020 30.12 849 25.07 -3.3 26.1 58 -10.5 13.1
06:55 1020 30.12 849 25.07 -2.4 27.7 52 -10.9 12.4
07:00 1019 30.09 849 25.07 -2.4 27.7 54 -10.4 13.3
07:05 1020 30.12 849 25.07 -3.3 26 58 -10.4 13.2
07:10 1020 30.12 849 25.07 -3.9 25 61 -10.5 13.2
07:15 1020 30.12 849 25.07 -4 24.8 60 -10.7 12.7
07:20 1020 30.12 849 25.07 -3.2 26.2 55 -10.9 12.3
07:25 1020 30.12 849 25.07 -2.4 27.7 53 -10.7 12.7
07:30 1020 30.12 849 25.07 -2.1 28.3 52 -10.7 12.8
07:35 1020 30.12 849 25.07 -2.2 28 54 -10.4 13.3
07:40 1020 30.12 849 25.07 -2.5 27.6 56 -10.2 13.7
07:45 1020 30.12 849 25.07 -2.6 27.4 56 -10.1 13.8
07:50 1020 30.12 849 25.07 -2.8 26.9 56 -10.3 13.4
07:55 1020 30.12 849 25.07 -3.1 26.4 57 -10.4 13.3
08:00 1020 30.12 849 25.07 -3.5 25.8 59 -10.4 13.2
08:05 1019 30.09 849 25.07 -3.7 25.4 59 -10.5 13.1
08:10 1020 30.12 849 25.07 -3.8 25.2 60 -10.5 13.2
08:15 1019 30.09 849 25.07 -4.2 24.5 58 -11.2 11.9
08:20 1019 30.09 849 25.07 -4.3 24.3 61 -10.8 12.6
08:25 1019 30.09 849 25.07 -3.3 26.1 58 -10.5 13.1
08:30 1019 30.09 849 25.07 -2.8 27 55 -10.5 13
08:35 1019 30.09 849 25.07 -2.8 27 55 -10.6 12.9
08:40 1019 30.09 849 25.07 -2.6 27.2 55 -10.4 13.3
08:45 1019 30.09 848 25.04 -2.3 27.8 53 -10.6 13
08:50 1019 30.09 848 25.04 -1.8 28.8 51 -10.6 12.9
08:55 1019 30.09 848 25.04 -2.2 28.1 52 -10.8 12.6
09:00 1019 30.09 848 25.04 -2.1 28.3 51 -10.8 12.5
09:05 1019 30.09 848 25.04 -2.1 28.2 52 -10.8 12.5
09:10 1019 30.09 848 25.04 -2.4 27.8 52 -11 12.1
09:15 1019 30.09 848 25.04 -2.5 27.6 51 -11.3 11.6
09:20 1019 30.09 848 25.04 -2 28.4 49 -11.3 11.6
09:25 1019 30.09 848 25.04 -1.8 28.8 49 -11 12.2
09:30 1019 30.09 848 25.04 -1.2 29.9 47 -11.2 11.8
09:35 1019 30.09 848 25.04 -0.9 30.4 47 -10.8 12.6
09:40 1019 30.09 848 25.04 -0.9 30.5 47 -10.8 12.6
09:45 1019 30.09 848 25.04 -0.1 31.8 45 -10.8 12.5
09:50 1019 30.09 848 25.04 -0 31.9 46 -10.3 13.4
09:55 1019 30.09 848 25.04 0.3 32.5 46 -10.1 13.7
10:00 1019 30.09 848 25.04 0.1 32.1 46 -10.3 13.5
10:05 1019 30.09 848 25.04 0.9 33.6 44 -10 14
10:10 1019 30.09 848 25.04 2 35.6 40 -10.3 13.5
10:15 1019 30.09 848 25.04 2.3 36.1 39 -10.2 13.7
10:20 1019 30.09 848 25.04 3.1 37.6 38 -9.9 14.3
10:25 1019 30.09 848 25.04 3.1 37.5 40 -9.4 15.1
10:30 1019 30.09 848 25.04 3.4 38.1 38 -9.5 14.8
10:35 1019 30.09 848 25.04 3.4 38 36 -10.5 13.2
10:40 1019 30.09 848 25.04 3.5 38.3 37 -10 14.1
10:45 1019 30.09 848 25.04 4.1 39.3 34 -10.4 13.3
10:50 1018 30.06 848 25.04 3.9 39 35 -10.1 13.8
10:55 1018 30.06 848 25.04 4.4 39.8 35 -9.7 14.5
11:00 1018 30.06 848 25.04 5.2 41.4 33 -9.9 14.2
11:05 1018 30.06 847 25.01 5 41.1 34 -9.7 14.5
11:10 1018 30.06 847 25.01 4.1 39.4 36 -9.6 14.8
11:15 1018 30.06 847 25.01 4.5 40.1 41 -7.7 18.1
11:20 1018 30.06 847 25.01 4.5 40 39 -8.3 17.1
11:25 1018 30.06 847 25.01 4.9 40.7 36 -9 15.8
11:30 1018 30.06 847 25.01 4.9 40.8 36 -9.1 15.7
11:35 1018 30.06 847 25.01 4 39.2 41 -8.1 17.4
11:40 1018 30.06 847 25.01 2.8 37.1 45 -7.9 17.7
11:45 1018 30.06 847 25.01 2.1 35.8 46 -8.3 17.1
11:50 1018 30.06 847 25.01 2.2 36 46 -8.2 17.3
11:55 1018 30.06 847 25.01 1.9 35.4 47 -8.2 17.2
12:00 1017 30.03 847 25.01 1.8 35.2 46 -8.5 16.7
12:05 1017 30.03 847 25.01 2 35.6 46 -8.5 16.7
12:10 1017 30.03 847 25.01 1.8 35.3 47 -8.4 16.8
12:15 1017 30.03 847 25.01 2 35.7 45 -8.5 16.6
12:20 1017 30.03 846 24.98 2.2 36 45 -8.5 16.7
12:25 1017 30.03 846 24.98 2.3 36.1 44 -8.7 16.3
12:30 1017 30.03 846 24.98 2.1 35.7 44 -8.8 16.1
12:35 1017 30.03 846 24.98 1.9 35.4 44 -9.1 15.6
12:40 1017 30.03 846 24.98 2 35.5 44 -9 15.9
12:45 1017 30.03 846 24.98 1.8 35.2 45 -8.9 16
12:50 1017 30.03 846 24.98 1.4 34.5 46 -9 15.8
12:55 1017 30.03 846 24.98 1.6 34.9 46 -8.7 16.3
13:00 1017 30.03 846 24.98 2 35.5 44 -8.9 16
13:05 1016 30 846 24.98 2.2 35.9 44 -8.9 16
13:10 1016 30 845 24.95 2.1 35.8 46 -8.3 17.1
13:15 1016 30 845 24.95 2.4 36.3 45 -8.4 16.9
13:20 1016 30 845 24.95 2.8 37.1 43 -8.5 16.8
13:25 1016 30 845 24.95 2.9 37.2 44 -8.1 17.4
13:30 1016 30 845 24.95 2.8 37 43 -8.5 16.8
13:35 1016 30 845 24.95 3.8 38.9 39 -9 15.7
13:40 1015 29.97 845 24.95 5.1 41.1 37 -8.5 16.7
13:45 1015 29.97 845 24.95 5.3 41.5 35 -8.9 16
13:50 1015 29.97 844 24.92 6 42.8 32 -9.5 14.9
13:55 1015 29.97 844 24.92 6.8 44.2 32 -9 15.8
14:00 1015 29.97 844 24.92 6.9 44.4 29 -9.9 14.1
14:05 1015 29.97 844 24.92 7.5 45.5 26 -10.8 12.6
14:10 1015 29.97 844 24.92 8.8 47.9 26 -9.8 14.4
14:15 1015 29.97 844 24.92 9.4 49 26 -9.3 15.3
14:20 1015 29.97 844 24.92 9.3 48.8 24 -10.1 13.9
14:25 1015 29.97 844 24.92 9.4 48.9 24 -10.1 13.8
14:30 1015 29.97 844 24.92 10 50.1 21 -11.1 12.1
14:35 1014 29.94 844 24.92 10.5 50.8 20 -11.6 11.1
14:40 1015 29.97 844 24.92 10.9 51.6 20 -11.1 12.1
14:45 1014 29.94 844 24.92 10.7 51.2 26 -8 17.6
14:50 1014 29.94 844 24.92 9.8 49.7 24 -9.6 14.8
14:55 1014 29.94 843 24.89 9.7 49.5 23 -10.4 13.2
15:00 1014 29.94 843 24.89 10.3 50.6 23 -9.8 14.3
15:05 1014 29.94 843 24.89 10.4 50.7 25 -8.7 16.4
15:10 1014 29.94 843 24.89 9.5 49.1 29 -7.5 18.4
15:15 1014 29.94 843 24.89 9.7 49.4 26 -9 15.9
15:20 1014 29.94 843 24.89 10 50 29 -7.2 19.1
15:25 1014 29.94 843 24.89 8.9 48.1 34 -6 21.2
15:30 1014 29.94 843 24.89 7.5 45.4 40 -5.1 22.8
15:35 1014 29.94 843 24.89 6.6 43.9 39 -6.3 20.6
15:40 1014 29.94 843 24.89 7.1 44.7 39 -6.1 21.1
15:45 1014 29.94 843 24.89 6.5 43.7 38 -6.7 20
15:50 1014 29.94 843 24.89 7 44.6 38 -6.2 20.9
15:55 1014 29.94 843 24.89 6.7 44.1 41 -5.4 22.2
16:00 1014 29.94 843 24.89 6.7 44.1 41 -5.7 21.8
16:05 1014 29.94 843 24.89 6 42.8 43 -5.7 21.7
16:10 1014 29.94 843 24.89 5.7 42.3 44 -5.6 21.9
16:15 1014 29.94 843 24.89 5.9 42.7 41 -6.2 20.9
16:20 1014 29.94 843 24.89 5.9 42.6 41 -6.2 20.8
16:25 1013 29.91 843 24.89 6.2 43.2 36 -7.8 17.9
16:30 1013 29.91 843 24.89 6.9 44.4 40 -5.7 21.7
16:35 1013 29.91 843 24.89 7.3 45.1 39 -5.8 21.5
16:40 1013 29.91 842 24.86 6.7 44.1 43 -4.9 23.1
16:45 1013 29.91 842 24.86 6.1 43 44 -5.2 22.6
16:50 1013 29.91 842 24.86 5.4 41.7 42 -6.6 20.1
16:55 1013 29.91 842 24.86 5.4 41.8 45 -5.5 22.2
17:00 1013 29.91 842 24.86 5.3 41.6 42 -6.5 20.2
17:05 1013 29.91 842 24.86 5.8 42.4 38 -7.4 18.7
17:10 1013 29.91 842 24.86 5.8 42.4 39 -7.2 19.1
17:15 1013 29.91 842 24.86 5.7 42.2 37 -7.9 17.7
17:20 1013 29.91 842 24.86 5.4 41.7 39 -7.4 18.6
17:25 1013 29.91 842 24.86 5.2 41.3 38 -7.9 17.8
17:30 1013 29.91 842 24.86 4.6 40.3 33 -10.3 13.5
17:35 1013 29.91 842 24.86 5.3 41.5 31 -10.5 13
17:40 1013 29.91 842 24.86 5.9 42.5 31 -10.1 13.9
17:45 1013 29.91 842 24.86 5.8 42.4 30 -10.3 13.5
17:50 1013 29.91 842 24.86 5.9 42.7 31 -9.8 14.4
17:55 1013 29.91 842 24.86 5.8 42.4 31 -10.3 13.5
18:00 1013 29.91 842 24.86 5.4 41.7 30 -10.7 12.8
18:05 1013 29.91 842 24.86 5.8 42.4 28 -11.5 11.3
18:10 1013 29.91 842 24.86 5.8 42.4 29 -10.9 12.3
18:15 1013 29.91 842 24.86 6.2 43.2 26 -12 10.3
18:20 1012 29.88 842 24.86 6 42.8 25 -12.8 8.9
18:25 1012 29.88 842 24.86 6.5 43.7 26 -11.8 10.8
18:30 1012 29.88 842 24.86 6.2 43.1 26 -11.9 10.5
18:35 1012 29.88 841 24.83 6.1 43 25 -12.3 9.9
18:40 1012 29.88 841 24.83 6.2 43.1 24 -12.9 8.8
18:45 1012 29.88 841 24.83 6.4 43.6 24 -12.9 8.8
18:50 1012 29.88 841 24.83 6.1 42.9 25 -12.7 9.2
18:55 1012 29.88 841 24.83 5.5 42 23 -14 6.8
19:00 1012 29.88 841 24.83 5.9 42.5 25 -12.6 9.3
19:05 1012 29.88 842 24.86 6.6 43.9 21 -14.5 5.9
19:10 1012 29.88 842 24.86 7.2 44.9 21 -13.9 6.9
19:15 1012 29.88 842 24.86 6.8 44.2 22 -13.4 7.9
19:20 1012 29.88 842 24.86 5.5 41.9 26 -12.5 9.4
19:25 1012 29.88 842 24.86 5.4 41.7 23 -14.4 6
19:30 1012 29.88 842 24.86 5.7 42.3 27 -11.8 10.8
19:35 1012 29.88 842 24.86 4.7 40.5 27 -12.8 9
19:40 1012 29.88 842 24.86 4.2 39.5 27 -13 8.5
19:45 1012 29.88 841 24.83 4.2 39.5 27 -13.5 7.8
19:50 1012 29.88 841 24.83 4.4 40 26 -13.5 7.7
19:55 1012 29.88 842 24.86 4.9 40.7 25 -13.8 7.2
20:00 1012 29.88 842 24.86 4.8 40.6 25 -13.4 7.8
20:05 1012 29.88 842 24.86 4.7 40.5 26 -13.1 8.4
20:10 1012 29.88 842 24.86 4.7 40.5 24 -14 6.7
20:15 1012 29.88 842 24.86 5.1 41.2 24 -14 6.7
20:20 1012 29.88 842 24.86 5.1 41.1 24 -13.9 7
20:25 1012 29.88 842 24.86 5.1 41.1 24 -13.8 7.2
20:30 1012 29.88 842 24.86 4.8 40.7 24 -14 6.7
20:35 1012 29.88 842 24.86 4.3 39.8 26 -13.4 7.9
20:40 1012 29.88 842 24.86 4 39.2 26 -14 6.9
20:45 1012 29.88 841 24.83 4 39.2 27 -13.6 7.5
20:50 1012 29.88 841 24.83 3.7 38.6 27 -13.5 7.7
20:55 1012 29.88 841 24.83 3.5 38.3 28 -13.6 7.5
21:00 1012 29.88 841 24.83 3.6 38.4 29 -13.1 8.5
21:05 1012 29.88 841 24.83 3.4 38.1 26 -14.2 6.5
21:10 1012 29.88 841 24.83 4.4 39.9 25 -13.8 7.2
21:15 1012 29.88 841 24.83 3.7 38.7 28 -13.1 8.3
21:20 1012 29.88 841 24.83 3.8 38.9 27 -13.4 7.9
21:25 1012 29.88 841 24.83 3.9 39.1 27 -13.5 7.7
21:30 1012 29.88 841 24.83 3.9 39 30 -12.2 10
21:35 1012 29.88 841 24.83 3.1 37.5 32 -12.1 10.2
21:40 1012 29.88 841 24.83 2.7 36.8 30 -13.1 8.3
21:45 1012 29.88 841 24.83 2.7 36.9 31 -12.7 9.2
21:50 1012 29.88 841 24.83 3.2 37.8 32 -12.1 10.3
21:55 1012 29.88 841 24.83 2.5 36.5 28 -14.4 6
22:00 1012 29.88 841 24.83 4.1 39.4 25 -14.2 6.5
22:05 1012 29.88 841 24.83 3.1 37.6 31 -12.7 9.2
22:10 1012 29.88 841 24.83 3.6 38.6 27 -13.7 7.4
22:15 1012 29.88 841 24.83 2.9 37.2 31 -12.8 9
22:20 1012 29.88 841 24.83 3.2 37.7 30 -13 8.6
22:25 1012 29.88 841 24.83 3.1 37.6 28 -13.7 7.3
22:30 1012 29.88 841 24.83 3.4 38.1 29 -13.2 8.2
22:35 1012 29.88 841 24.83 2.8 37.1 31 -12.6 9.3
22:40 1012 29.88 841 24.83 2.3 36.2 33 -12.5 9.6
22:45 1012 29.88 841 24.83 2.1 35.8 33 -12.7 9.1
22:50 1012 29.88 841 24.83 2.4 36.3 31 -12.9 8.7
22:55 1012 29.88 841 24.83 2.7 36.9 32 -12.4 9.6
23:00 1012 29.88 841 24.83 2.3 36.2 31 -13 8.6
23:05 1012 29.88 841 24.83 2.7 36.8 30 -13.3 8
23:10 1012 29.88 841 24.83 3.4 38.1 30 -12.6 9.3
23:15 1012 29.88 841 24.83 3.2 37.8 28 -13.7 7.3
23:20 1012 29.88 841 24.83 3.1 37.6 29 -13.2 8.2
23:25 1012 29.88 841 24.83 3.4 38.1 28 -13.3 8
23:30 1011 29.85 841 24.83 3.8 38.9 26 -13.9 6.9
23:35 1011 29.85 841 24.83 3.1 37.6 31 -12.5 9.5
23:40 1011 29.85 841 24.83 2.6 36.7 31 -13 8.6
23:45 1011 29.85 841 24.83 2.8 37 29 -13.5 7.7
23:50 1011 29.85 840 24.81 3.3 37.9 28 -13.7 7.3
23:55 1011 29.85 840 24.81 3.7 38.7 28 -13.1 8.5
24:00 1011 29.85 840 24.81 2.9 37.2 32 -12.3 9.8